createdAt,value
2022-12-22T00:02:50.367Z,4.70
2022-12-22T00:09:10.839Z,5.43
2022-12-22T00:15:35.830Z,5.00
2022-12-22T00:21:56.455Z,4.73
2022-12-22T00:28:16.973Z,5.00
2022-12-22T00:34:40.806Z,5.77
2022-12-22T00:41:01.314Z,4.40
2022-12-22T00:47:21.905Z,4.73
2022-12-22T00:53:42.573Z,4.70
2022-12-22T01:00:03.277Z,6.30
2022-12-22T01:06:28.881Z,4.40
2022-12-22T01:12:50.052Z,4.40
2022-12-22T01:19:10.530Z,4.67
2022-12-22T01:25:35.138Z,3.53
2022-12-22T01:31:55.522Z,4.10
2022-12-22T01:38:15.939Z,4.33
2022-12-22T01:44:36.916Z,4.50
2022-12-22T01:50:57.921Z,5.00
2022-12-22T01:57:20.027Z,4.87
2022-12-22T02:03:41.404Z,4.13
2022-12-22T02:10:20.219Z,4.07
2022-12-22T02:17:14.662Z,4.53
2022-12-22T02:23:43.169Z,4.47
2022-12-22T02:30:22.231Z,5.00
2022-12-22T02:37:23.839Z,4.10
2022-12-22T02:44:12.130Z,4.50
2022-12-22T02:50:53.483Z,3.97
2022-12-22T02:57:13.890Z,4.37
2022-12-22T03:03:34.698Z,4.03
2022-12-22T03:09:55.299Z,4.03
2022-12-22T03:16:15.738Z,4.00
2022-12-22T03:22:36.111Z,3.87
2022-12-22T03:28:37.979Z,4.43
2022-12-22T03:34:39.866Z,4.40
2022-12-22T03:40:44.365Z,4.50
2022-12-22T03:46:46.484Z,4.43
2022-12-22T03:52:48.410Z,4.60
2022-12-22T03:58:50.286Z,4.57
2022-12-22T04:04:52.163Z,4.30
2022-12-22T04:11:12.771Z,4.07
2022-12-22T04:17:14.652Z,4.07
2022-12-22T04:23:16.578Z,4.10
2022-12-22T04:29:18.544Z,3.77
2022-12-22T04:35:20.445Z,4.03
2022-12-22T04:41:22.322Z,3.50
2022-12-22T04:47:24.211Z,3.40
2022-12-22T04:53:28.482Z,3.40
2022-12-22T04:59:30.427Z,3.40
2022-12-22T05:05:33.544Z,3.03
2022-12-22T05:11:35.442Z,2.93
2022-12-22T05:17:37.350Z,3.70
2022-12-22T05:23:40.820Z,4.20
2022-12-22T05:29:42.709Z,3.90
2022-12-22T05:35:44.723Z,5.23
2022-12-22T05:41:46.781Z,4.50
2022-12-22T05:47:51.985Z,4.70
2022-12-22T05:53:53.906Z,5.00
2022-12-22T05:59:55.897Z,4.30
2022-12-22T06:05:58.441Z,4.30
2022-12-22T06:12:00.430Z,4.37
2022-12-22T06:18:02.350Z,4.23
2022-12-22T06:24:05.935Z,4.97
2022-12-22T06:30:08.773Z,4.53
2022-12-22T06:36:11.068Z,4.60
2022-12-22T06:42:31.703Z,3.90
2022-12-22T06:48:33.653Z,3.80
2022-12-22T06:54:35.800Z,3.77
2022-12-22T07:00:37.780Z,3.97
2022-12-22T07:06:39.662Z,4.47
2022-12-22T07:12:41.886Z,3.43
2022-12-22T07:18:43.833Z,3.03
2022-12-22T07:24:45.726Z,3.90
2022-12-22T07:30:48.371Z,3.83
2022-12-22T07:36:50.242Z,2.90
2022-12-22T07:43:00.508Z,3.27
2022-12-22T07:49:21.464Z,3.33
2022-12-22T07:55:29.646Z,3.13
2022-12-22T08:01:31.715Z,4.00
2022-12-22T08:07:33.727Z,3.50
2022-12-22T08:13:35.909Z,3.40
2022-12-22T08:19:37.874Z,3.93
2022-12-22T08:25:40.781Z,3.80
2022-12-22T08:31:43.603Z,4.17
2022-12-22T08:37:47.262Z,3.47
2022-12-22T08:43:49.157Z,3.80
2022-12-22T08:49:51.054Z,3.30
2022-12-22T08:55:55.160Z,2.33
2022-12-22T09:01:57.288Z,1.83
2022-12-22T09:07:59.683Z,2.20
2022-12-22T09:14:04.356Z,2.43
2022-12-22T09:20:07.515Z,2.00
2022-12-22T09:26:15.485Z,1.90
2022-12-22T09:32:17.431Z,1.23
2022-12-22T09:38:20.127Z,1.20
2022-12-22T09:44:33.193Z,1.47
2022-12-22T09:50:38.061Z,1.30
2022-12-22T09:56:40.307Z,1.50
2022-12-22T10:03:22.538Z,1.10
2022-12-22T10:15:53.801Z,1.50
2022-12-22T10:21:55.693Z,1.70
2022-12-22T10:28:00.678Z,1.30
2022-12-22T10:34:18.093Z,2.03
2022-12-22T10:40:22.507Z,2.50
2022-12-22T10:46:39.066Z,1.97
2022-12-22T10:52:41.113Z,2.30
2022-12-22T10:59:05.907Z,2.63
2022-12-22T11:05:11.419Z,3.50
2022-12-22T11:11:41.842Z,6.50
2022-12-22T11:18:30.069Z,27.70
2022-12-22T11:24:52.437Z,6.70
2022-12-22T11:31:50.565Z,4.50
2022-12-22T11:38:29.695Z,4.90
2022-12-22T11:45:24.964Z,4.13
2022-12-22T11:52:16.171Z,5.60
2022-12-22T11:58:45.024Z,7.97
2022-12-22T12:05:23.170Z,4.53
2022-12-22T12:12:01.309Z,4.47
2022-12-22T12:18:38.358Z,3.40
2022-12-22T12:25:25.446Z,3.27
2022-12-22T12:31:37.611Z,2.60
2022-12-22T12:37:44.067Z,3.43
2022-12-22T12:43:48.819Z,2.80
2022-12-22T12:49:56.321Z,2.50
2022-12-22T12:56:05.788Z,3.10
2022-12-22T13:02:28.286Z,2.90
2022-12-22T13:09:14.312Z,3.10
2022-12-22T13:15:38.231Z,3.53
2022-12-22T13:21:54.260Z,3.10
2022-12-22T13:27:58.394Z,3.87
2022-12-22T13:35:20.018Z,5.17
2022-12-22T13:41:26.918Z,4.30
2022-12-22T13:47:29.459Z,4.10
2022-12-22T14:00:23.750Z,5.13
2022-12-22T14:06:28.601Z,4.93
2022-12-22T14:12:38.092Z,4.70
2022-12-22T14:18:40.322Z,5.33
2022-12-22T14:24:54.363Z,4.60
2022-12-22T14:31:00.027Z,5.23
2022-12-22T14:37:02.926Z,6.07
2022-12-22T14:43:23.836Z,5.07
2022-12-22T14:49:26.885Z,5.00
2022-12-22T14:55:41.013Z,5.60
2022-12-22T15:02:19.505Z,5.93
2022-12-22T15:08:44.605Z,4.83
2022-12-22T15:14:48.814Z,5.50
2022-12-22T15:20:50.984Z,4.50
2022-12-22T15:26:52.897Z,4.40
2022-12-22T15:32:56.916Z,4.10
2022-12-22T15:38:58.850Z,3.87
2022-12-22T15:45:00.741Z,3.67
2022-12-22T15:51:06.347Z,4.80
2022-12-22T15:57:13.898Z,3.80
2022-12-22T16:03:16.032Z,4.20
2022-12-22T16:09:24.088Z,4.67
2022-12-22T16:15:32.862Z,5.00
2022-12-22T16:21:34.858Z,6.07
2022-12-22T16:27:36.850Z,6.40
2022-12-22T16:33:38.762Z,6.77
2022-12-22T16:39:40.744Z,6.87
2022-12-22T16:45:45.452Z,7.10
2022-12-22T16:51:51.586Z,6.90
2022-12-22T16:57:53.471Z,9.40
2022-12-22T17:03:56.558Z,10.50
2022-12-22T17:10:02.181Z,10.77
2022-12-22T17:16:05.171Z,11.10
2022-12-22T17:22:22.948Z,8.53
2022-12-22T17:28:25.478Z,10.30
2022-12-22T17:34:27.363Z,11.20
2022-12-22T17:40:34.327Z,9.90
2022-12-22T17:46:36.407Z,11.60
2022-12-22T17:52:39.561Z,11.00
2022-12-22T17:58:43.357Z,9.90
2022-12-22T18:04:46.690Z,11.33
2022-12-22T18:10:51.693Z,9.67
2022-12-22T18:16:53.689Z,10.40
2022-12-22T18:23:02.174Z,9.90
2022-12-22T18:29:04.619Z,9.57
2022-12-22T18:35:06.999Z,7.93
2022-12-22T18:41:09.822Z,8.10
2022-12-22T18:47:12.192Z,7.43
2022-12-22T18:53:29.350Z,6.37
2022-12-22T18:59:32.824Z,7.40
2022-12-22T19:05:34.813Z,9.83
2022-12-22T19:11:36.703Z,8.03
2022-12-22T19:17:38.638Z,8.83
2022-12-22T19:23:41.076Z,8.40
2022-12-22T19:29:43.139Z,9.10
2022-12-22T19:35:45.031Z,9.90
2022-12-22T19:41:49.846Z,8.77
2022-12-22T19:47:54.041Z,8.80
2022-12-22T19:53:55.946Z,10.60
2022-12-22T19:59:58.079Z,10.43
2022-12-22T20:05:59.992Z,9.13
2022-12-22T20:12:03.198Z,10.30
2022-12-22T20:18:21.570Z,9.80
2022-12-22T20:24:23.602Z,10.07
2022-12-22T20:30:29.758Z,10.03
2022-12-22T20:36:31.983Z,10.03
2022-12-22T20:42:34.074Z,9.20
2022-12-22T20:48:40.490Z,10.43
2022-12-22T20:54:42.767Z,10.30
2022-12-22T21:00:45.093Z,10.27
2022-12-22T21:06:55.243Z,11.17
2022-12-22T21:12:57.191Z,11.70
2022-12-22T21:18:59.090Z,10.50
2022-12-22T21:25:01.060Z,10.60
2022-12-22T21:31:04.515Z,11.70
2022-12-22T21:37:15.839Z,11.10
2022-12-22T21:43:18.121Z,9.40
2022-12-22T21:49:24.161Z,10.20
2022-12-22T21:55:31.604Z,9.87
2022-12-22T22:01:33.623Z,8.97
2022-12-22T22:07:36.231Z,9.40
2022-12-22T22:13:38.117Z,7.97
2022-12-22T22:19:40.119Z,8.13
2022-12-22T22:25:42.536Z,8.10
2022-12-22T22:31:44.662Z,7.67
2022-12-22T22:37:50.670Z,7.80
2022-12-22T22:43:55.797Z,7.40
2022-12-22T22:49:57.691Z,7.50
2022-12-22T22:56:03.416Z,7.60
2022-12-22T23:02:05.428Z,7.53
2022-12-22T23:08:07.434Z,7.90
2022-12-22T23:14:09.751Z,8.03
2022-12-22T23:20:11.905Z,8.17
2022-12-22T23:26:13.995Z,6.43
2022-12-22T23:32:15.867Z,5.40
2022-12-22T23:38:20.966Z,6.00
2022-12-22T23:44:22.941Z,5.50
2022-12-22T23:50:26.470Z,3.80
2022-12-22T23:56:30.117Z,4.23
